METAR Data
IDs: Format: Raw Decoded Include TAF

Data at: 1333 UTC 14 Dec 2019

KVBT 141325Z AUTO 34005KT 6SM BR OVC008 02/01 A2987 RMK AO2 CIG 006V009 FZRANO TSNO
KVBT 141306Z AUTO 32006KT 8SM BKN010 02/01 A2987 RMK AO2 FZRANO TSNO
KVBT 141256Z AUTO 35007KT 8SM SCT010 02/01 A2986 RMK AO2 SLP120 T00220006 FZRANO TSNO
KVBT 141156Z AUTO 33006KT 10SM CLR 03/01 A2985 RMK AO2 SLP116 60000 7//// T00280011 10061 20028 53017 TSNO
KVBT 141056Z AUTO 32005KT 10SM CLR 04/02 A2983 RMK AO2 SLP106 T00390017 TSNO
KVBT 140956Z AUTO 32008KT 10SM CLR 05/03 A2981 RMK AO2 SLP096 T00500028 TSNO
KVBT 140856Z AUTO 24005KT 10SM CLR 05/03 A2980 RMK AO2 SLP095 60000 T00500033 51003 TSNO
KVBT 140756Z AUTO 26005KT 10SM FEW055 BKN070 OVC110 06/04 A2980 RMK AO2 RAB16E32 SLP094 P0000 T00610039 TSNO
KVBT 140656Z AUTO 21003KT 10SM BKN095 04/03 A2980 RMK AO2 SLP098 T00440033 TSNO
KVBT 140556Z AUTO 16006KT 10SM SCT120 04/03 A2979 RMK AO2 SLP094 T00440028 10089 20039 401280039 58021 TSNO
KVBT 140456Z AUTO 22003KT 10SM CLR 04/03 A2983 RMK AO2 SLP107 T00440028 TSNO
KVBT 140356Z AUTO 15006KT 10SM CLR 05/03 A2984 RMK AO2 SLP112 T00500028 TSNO
KVBT 140256Z AUTO 26003KT 10SM CLR 06/02 A2986 RMK AO2 SLP117 T00610022 51007 TSNO
KVBT 140156Z AUTO 21003KT 10SM CLR 07/02 A2985 RMK AO2 SLP116 T00670022 TSNO
KVBT 140056Z AUTO 00000KT 10SM CLR 07/03 A2985 RMK AO2 SLP114 T00720028 TSNO
KVBT 132356Z AUTO 00000KT 10SM CLR 09/03 A2984 RMK AO2 SLP109 6//// T00890028 10128 20089 55000 TSNO
KVBT 132256Z AUTO 25004KT 10SM CLR 11/03 A2983 RMK AO2 SLP107 T01060028 TSNO
KVBT 132156Z AUTO 24005KT 10SM CLR 12/03 A2983 RMK AO2 SLP104 T01220028 TSNO
KVBT 132056Z AUTO 00000KT 10SM CLR 12/03 A2984 RMK AO2 SLP108 6//// T01220028 56016 TSNO
KVBT 131956Z AUTO 00000KT 10SM CLR 12/02 A2984 RMK AO2 SLP110 T01170022 TSNO
KVBT 131856Z AUTO 20004KT 10SM FEW120 11/03 A2986 RMK AO2 SLP117 T01110028 TSNO
KVBT 131756Z AUTO 16003KT 10SM CLR 11/03 A2989 RMK AO2 SLP125 T01060028 10106 20039 58022 TSNO
KVBT 131556Z AUTO 19006KT 10SM CLR 08/00 A2996 RMK AO2 SLP152 T00780000 TSNO
KVBT 131456Z AUTO 16004KT 10SM OVC044 06/M01 A2996 RMK AO2 SLP152 T00561006 58001 TSNO
KVBT 131356Z AUTO 18003KT 10SM SCT046 04/M01 A2996 RMK AO2 SLP155 T00441011 TSNO
KVBT 131256Z AUTO 14004KT 10SM FEW043 04/M01 A2996 RMK AO2 SLP152 T00441011 TSNO
KVBT 131156Z AUTO 00000KT 10SM OVC045 06/M01 A2996 RMK AO2 SLP152 7//// T00561011 10061 20044 57012 TSNO
KVBT 131056Z AUTO 16003KT 10SM OVC045 05/M01 A2997 RMK AO2 SLP155 T00501011 TSNO
KVBT 130956Z AUTO 16003KT 10SM OVC100 04/M02 A2998 RMK AO2 SLP159 T00441017 TSNO
KVBT 130856Z AUTO 16004KT 10SM FEW110 04/M02 A3000 RMK AO2 SLP163 T00441017 56021 TSNO
KVBT 130756Z AUTO 19003KT 10SM FEW044 SCT110 06/M02 A3002 RMK AO2 SLP169 T00561022 TSNO
KVBT 130656Z AUTO 21004KT 10SM OVC044 06/M02 A3003 RMK AO2 SLP174 T00561022 TSNO
KVBT 130556Z AUTO 19006KT 10SM OVC042 06/M02 A3006 RMK AO2 SLP185 T00611022 10078 20039 401280017 58008 TSNO
KVBT 130456Z AUTO 19004KT 10SM SCT055 04/M03 A3009 RMK AO2 SLP195 T00441028 TSNO
KVBT 130356Z AUTO 00000KT 10SM CLR 04/M04 A3009 RMK AO2 SLP196 T00441039 TSNO
KVBT 130256Z AUTO 15004KT 10SM SCT060 05/M04 A3008 RMK AO2 SLP196 T00501039 58003 TSNO
KVBT 130156Z AUTO 18003KT 10SM CLR 06/M05 A3009 RMK AO2 SLP198 T00561050 TSNO